Time;durP1;ratioP1;P1;durP2;ratioP2;P2;SDS_P1;SDS_P2;PMS_P1;PMS_P2;Temp;Humidity;BMP_temperature;BMP_pressure;BME280_temperature;BME280_humidity;BME280_pressure;Samples;Min_cycle;Max_cycle;Signal;HPM_P1;HPM_P2
2024/01/11 00:00:15;;;;;;;25.05;10.60;;;-1.60;67.80;;;;;;5054879;28;20040;-38
2024/01/11 00:02:40;;;;;;;22.33;10.35;;;-1.60;67.90;;;;;;5054619;28;20454;-31
2024/01/11 00:05:06;;;;;;;21.08;9.63;;;-1.60;67.90;;;;;;5054557;28;20017;-30
2024/01/11 00:07:32;;;;;;;23.17;10.23;;;-1.60;67.90;;;;;;5054622;28;20048;-29
2024/01/11 00:09:58;;;;;;;21.92;10.35;;;-1.70;68.00;;;;;;5054279;28;20021;-32
2024/01/11 00:12:23;;;;;;;22.63;10.48;;;-1.70;68.00;;;;;;5054553;28;20021;-31
2024/01/11 00:14:49;;;;;;;20.52;9.10;;;-1.70;68.10;;;;;;5054477;28;20029;-33
2024/01/11 00:17:15;;;;;;;20.27;9.73;;;-1.80;68.00;;;;;;5054353;28;20147;-32
2024/01/11 00:19:41;;;;;;;19.45;9.80;;;-1.80;68.10;;;;;;5054260;28;20021;-31
2024/01/11 00:22:06;;;;;;;19.35;9.90;;;-1.80;68.10;;;;;;5054207;28;20028;-33
2024/01/11 00:24:32;;;;;;;18.70;8.80;;;-1.80;68.20;;;;;;5054162;28;20150;-30
2024/01/11 00:26:58;;;;;;;21.27;9.35;;;-1.80;68.20;;;;;;5054063;28;20105;-30
2024/01/11 00:29:23;;;;;;;22.15;10.50;;;-1.90;68.20;;;;;;5054125;28;20520;-30
2024/01/11 00:31:49;;;;;;;17.60;8.43;;;-1.90;68.30;;;;;;5054092;28;20379;-32
2024/01/11 00:34:14;;;;;;;19.60;9.38;;;-2.00;68.30;;;;;;5054145;28;20049;-31
2024/01/11 00:36:40;;;;;;;19.58;10.25;;;-2.00;68.40;;;;;;5054129;28;20031;-29
2024/01/11 00:39:05;;;;;;;21.55;9.82;;;-2.10;68.40;;;;;;5053963;28;20021;-31
2024/01/11 00:41:31;;;;;;;19.90;9.55;;;-2.10;68.50;;;;;;5053658;28;20040;-30
2024/01/11 00:43:57;;;;;;;22.17;9.95;;;-2.20;68.50;;;;;;5053905;28;20097;-33
2024/01/11 00:46:22;;;;;;;20.73;9.05;;;-2.20;68.60;;;;;;5054126;28;20037;-30
2024/01/11 00:48:48;;;;;;;19.85;9.10;;;-2.20;68.70;;;;;;5053701;28;20013;-33
2024/01/11 00:51:15;;;;;;;18.48;8.82;;;-2.30;68.80;;;;;;5053781;28;20029;-32
2024/01/11 00:53:40;;;;;;;16.10;7.85;;;-2.30;68.90;;;;;;5053946;28;20025;-33
2024/01/11 00:56:14;;;;;;;17.48;8.85;;;-2.30;69.00;;;;;;5053768;28;20043;-35
2024/01/11 00:58:40;;;;;;;16.30;8.10;;;-2.40;69.00;;;;;;5053487;28;20026;-33
2024/01/11 01:01:09;;;;;;;20.75;9.25;;;-2.40;69.10;;;;;;5053778;28;20025;-37
2024/01/11 01:03:35;;;;;;;18.40;8.98;;;-2.40;69.20;;;;;;5053790;28;20017;-34
2024/01/11 01:06:01;;;;;;;18.95;9.13;;;-2.40;69.30;;;;;;5053445;28;20032;-35
2024/01/11 01:08:27;;;;;;;19.75;8.90;;;-2.40;69.30;;;;;;5053560;28;20064;-34
2024/01/11 01:10:52;;;;;;;18.90;8.50;;;-2.50;69.40;;;;;;5053876;28;20492;-30
2024/01/11 01:13:18;;;;;;;15.88;8.02;;;-2.50;69.50;;;;;;5053733;28;20508;-31
2024/01/11 01:15:43;;;;;;;21.75;9.02;;;-2.40;69.60;;;;;;5053740;28;20358;-30
2024/01/11 01:18:09;;;;;;;16.08;7.93;;;-2.40;69.60;;;;;;5053835;28;20021;-30
2024/01/11 01:20:34;;;;;;;18.98;9.30;;;-2.40;69.70;;;;;;5053491;28;20039;-32
2024/01/11 01:23:00;;;;;;;20.50;9.32;;;-2.40;69.70;;;;;;5053480;28;20025;-35
2024/01/11 01:25:26;;;;;;;19.33;8.85;;;-2.40;69.80;;;;;;5053208;28;20021;-31
2024/01/11 01:27:51;;;;;;;17.40;8.95;;;-2.40;69.90;;;;;;5053089;28;20031;-31
2024/01/11 01:30:17;;;;;;;19.50;8.90;;;-2.40;69.90;;;;;;5053063;28;20087;-30
2024/01/11 01:32:42;;;;;;;18.48;8.73;;;-2.40;70.00;;;;;;5053401;28;20112;-38
2024/01/11 01:35:08;;;;;;;19.95;9.05;;;-2.50;70.00;;;;;;5051542;28;20049;-29
2024/01/11 01:37:34;;;;;;;17.88;9.02;;;-2.50;70.10;;;;;;5053306;28;20111;-30
2024/01/11 01:40:00;;;;;;;18.08;9.38;;;-2.50;70.10;;;;;;5052796;28;20032;-30
2024/01/11 01:42:25;;;;;;;20.38;9.40;;;-2.50;70.20;;;;;;5053416;28;20445;-31
2024/01/11 01:44:51;;;;;;;18.13;9.35;;;-2.60;70.20;;;;;;5053443;28;20017;-37
2024/01/11 01:47:17;;;;;;;17.98;8.95;;;-2.60;70.30;;;;;;5053582;28;20028;-30
2024/01/11 01:49:44;;;;;;;18.70;9.70;;;-2.60;70.40;;;;;;5053225;28;20418;-28
2024/01/11 01:52:14;;;;;;;17.45;8.98;;;-2.60;70.40;;;;;;5052806;28;20025;-34
2024/01/11 01:54:39;;;;;;;15.88;8.48;;;-2.60;70.40;;;;;;5053262;28;20032;-33
2024/01/11 01:57:07;;;;;;;21.17;9.40;;;-2.60;70.50;;;;;;5053163;28;20512;-31
2024/01/11 01:59:33;;;;;;;17.77;8.77;;;-2.60;70.60;;;;;;5053022;28;20028;-28
2024/01/11 02:01:59;;;;;;;15.05;8.00;;;-2.60;70.80;;;;;;5052582;28;20373;-33
2024/01/11 02:04:26;;;;;;;17.17;8.65;;;-2.50;70.80;;;;;;5053068;28;20024;-29
2024/01/11 02:06:55;;;;;;;18.58;9.20;;;-2.60;70.70;;;;;;5052829;28;20103;-29
2024/01/11 02:09:24;;;;;;;15.75;8.05;;;-2.60;70.80;;;;;;5052870;28;20025;-29
2024/01/11 02:11:53;;;;;;;17.67;9.00;;;-2.60;70.90;;;;;;5052854;28;20108;-30
2024/01/11 02:14:19;;;;;;;18.02;8.73;;;-2.70;70.90;;;;;;5052867;28;20680;-29
2024/01/11 02:16:45;;;;;;;17.77;8.60;;;-2.70;71.00;;;;;;5052896;28;20021;-33
2024/01/11 02:19:13;;;;;;;21.67;9.60;;;-2.80;71.00;;;;;;5051232;28;20519;-36
2024/01/11 02:21:42;;;;;;;18.95;9.13;;;-2.80;71.20;;;;;;5052497;28;20079;-33
2024/01/11 02:24:08;;;;;;;15.45;8.25;;;-2.90;71.30;;;;;;5051598;28;20021;-32
2024/01/11 02:26:34;;;;;;;18.08;9.45;;;-2.90;71.50;;;;;;5052575;28;20040;-30
2024/01/11 02:29:00;;;;;;;17.50;8.63;;;-3.00;71.50;;;;;;5052107;28;20021;-36
2024/01/11 02:31:26;;;;;;;22.83;9.48;;;-3.00;71.70;;;;;;5052277;28;20366;-32
2024/01/11 02:33:53;;;;;;;18.70;8.95;;;-3.10;71.80;;;;;;5052384;28;20149;-29
2024/01/11 02:36:20;;;;;;;18.30;9.20;;;-3.10;71.90;;;;;;5052813;28;20029;-32
2024/01/11 02:38:46;;;;;;;16.52;8.15;;;-3.10;72.00;;;;;;5052355;28;20047;-33
2024/01/11 02:41:14;;;;;;;18.08;8.85;;;-3.00;72.10;;;;;;5052417;28;20029;-31
2024/01/11 02:43:39;;;;;;;18.52;9.15;;;-3.10;72.00;;;;;;5052587;28;20021;-35
2024/01/11 02:46:05;;;;;;;20.73;8.80;;;-3.10;72.10;;;;;;5052409;28;20396;-31
2024/01/11 02:48:31;;;;;;;20.23;8.45;;;-3.10;72.20;;;;;;5050872;28;20021;-29
2024/01/11 02:50:59;;;;;;;16.73;8.90;;;-3.00;72.30;;;;;;5052576;28;20032;-32
2024/01/11 02:53:25;;;;;;;18.08;8.30;;;-3.00;72.40;;;;;;5052176;28;20021;-33
2024/01/11 02:55:51;;;;;;;17.95;8.80;;;-3.00;72.40;;;;;;5050815;28;20036;-30
2024/01/11 02:58:17;;;;;;;19.58;9.13;;;-2.90;72.40;;;;;;5052061;28;20055;-31
2024/01/11 03:00:42;;;;;;;19.45;9.10;;;-2.90;72.40;;;;;;5052136;28;20103;-33
2024/01/11 03:03:08;;;;;;;17.55;8.30;;;-2.80;72.50;;;;;;5052046;28;20025;-29
2024/01/11 03:05:33;;;;;;;18.60;9.55;;;-2.80;72.40;;;;;;5051190;28;20043;-29
2024/01/11 03:07:59;;;;;;;19.17;8.85;;;-2.80;72.40;;;;;;5051878;28;20073;-29
2024/01/11 03:10:24;;;;;;;17.40;9.10;;;-2.80;72.50;;;;;;5052097;28;20027;-35
2024/01/11 03:12:50;;;;;;;17.55;8.90;;;-2.80;72.50;;;;;;5052005;28;20017;-30
2024/01/11 03:15:16;;;;;;;21.30;9.27;;;-2.70;72.50;;;;;;5052176;28;20021;-31
2024/01/11 03:17:41;;;;;;;17.30;8.40;;;-2.70;72.60;;;;;;5052300;28;20474;-29
2024/01/11 03:20:08;;;;;;;20.30;9.10;;;-2.70;72.60;;;;;;5052011;28;20025;-29
2024/01/11 03:22:33;;;;;;;16.63;8.98;;;-2.80;72.50;;;;;;5051747;28;20033;-29
2024/01/11 03:24:59;;;;;;;18.40;8.52;;;-2.80;72.60;;;;;;5051812;28;20024;-38
2024/01/11 03:27:25;;;;;;;19.92;9.38;;;-2.90;72.60;;;;;;5051928;28;20100;-30
2024/01/11 03:29:50;;;;;;;17.02;9.07;;;-3.00;72.60;;;;;;5051890;28;20068;-29
2024/01/11 03:32:16;;;;;;;18.52;9.45;;;-3.00;72.90;;;;;;5052153;28;20025;-29
2024/01/11 03:34:41;;;;;;;23.65;9.70;;;-3.10;72.90;;;;;;5051823;28;20045;-31
2024/01/11 03:37:07;;;;;;;18.70;8.65;;;-3.10;73.10;;;;;;5052242;28;20094;-29
2024/01/11 03:39:34;;;;;;;17.85;8.70;;;-3.10;73.20;;;;;;5050465;28;20047;-29
2024/01/11 03:42:00;;;;;;;20.20;9.13;;;-3.20;73.20;;;;;;5051735;28;20025;-29
2024/01/11 03:44:25;;;;;;;15.63;8.15;;;-3.20;73.30;;;;;;5051790;28;20028;-29
2024/01/11 03:46:51;;;;;;;17.33;8.93;;;-3.20;73.30;;;;;;5052030;28;20017;-30
2024/01/11 03:49:17;;;;;;;20.00;9.10;;;-3.20;73.40;;;;;;5052016;28;20017;-29
2024/01/11 03:51:43;;;;;;;19.63;8.98;;;-3.20;73.50;;;;;;5051715;28;20025;-30
2024/01/11 03:54:08;;;;;;;15.60;8.65;;;-3.10;73.60;;;;;;5051914;28;20048;-35
2024/01/11 03:56:38;;;;;;;19.23;9.05;;;-3.10;73.70;;;;;;5051662;28;20454;-29
2024/01/11 03:59:05;;;;;;;20.42;9.15;;;-3.10;73.60;;;;;;5051667;28;20032;-32
2024/01/11 04:01:31;;;;;;;18.50;9.00;;;-3.10;73.70;;;;;;5051660;28;20477;-31
2024/01/11 04:03:57;;;;;;;20.67;8.95;;;-3.10;73.60;;;;;;5051784;28;20024;-30
2024/01/11 04:06:23;;;;;;;17.63;8.65;;;-3.10;73.70;;;;;;5051493;28;20017;-29
2024/01/11 04:08:49;;;;;;;22.83;10.02;;;-3.10;73.70;;;;;;5049964;28;20017;-32
2024/01/11 04:11:15;;;;;;;19.08;9.30;;;-3.20;73.70;;;;;;5051397;28;20465;-32
2024/01/11 04:13:41;;;;;;;21.83;10.00;;;-3.20;73.80;;;;;;5051579;28;20025;-30
2024/01/11 04:16:07;;;;;;;21.17;10.32;;;-3.30;73.90;;;;;;5053034;28;20025;-29
2024/01/11 04:18:33;;;;;;;19.75;9.13;;;-3.30;74.00;;;;;;5055278;28;20025;-29
2024/01/11 04:20:58;;;;;;;21.30;9.60;;;-3.40;74.10;;;;;;5055230;28;20087;-32
2024/01/11 04:23:24;;;;;;;17.63;9.32;;;-3.40;74.20;;;;;;5055116;28;20017;-31
2024/01/11 04:25:51;;;;;;;25.25;10.13;;;-3.40;74.30;;;;;;5055270;28;20017;-32
2024/01/11 04:28:17;;;;;;;22.55;10.45;;;-3.40;74.40;;;;;;5054844;28;20363;-31
2024/01/11 04:30:43;;;;;;;22.02;10.65;;;-3.40;74.60;;;;;;5054932;28;20063;-32
2024/01/11 04:33:10;;;;;;;23.48;10.68;;;-3.50;74.70;;;;;;5054961;28;20637;-31
2024/01/11 04:35:36;;;;;;;22.50;10.45;;;-3.50;74.80;;;;;;5053637;28;20013;-28
2024/01/11 04:38:02;;;;;;;20.42;9.68;;;-3.60;74.90;;;;;;5054786;28;20017;-30
2024/01/11 04:40:27;;;;;;;20.80;9.82;;;-3.60;75.00;;;;;;5054906;28;20096;-29
2024/01/11 04:42:53;;;;;;;24.15;11.00;;;-3.60;75.10;;;;;;5054629;28;20044;-29
2024/01/11 04:45:18;;;;;;;19.70;10.15;;;-3.60;75.30;;;;;;5054593;28;20052;-31
2024/01/11 04:47:44;;;;;;;21.00;10.70;;;-3.60;75.30;;;;;;5054733;28;20092;-29
2024/01/11 04:50:10;;;;;;;23.55;10.73;;;-3.60;75.50;;;;;;5054644;28;20044;-30
2024/01/11 04:52:35;;;;;;;21.52;10.63;;;-3.70;75.40;;;;;;5054655;28;20033;-30
2024/01/11 04:55:01;;;;;;;19.45;9.02;;;-3.70;75.50;;;;;;5054553;28;20021;-31
2024/01/11 04:57:27;;;;;;;21.23;10.95;;;-3.70;75.60;;;;;;5054221;28;20021;-30
2024/01/11 04:59:53;;;;;;;21.42;9.85;;;-3.70;75.60;;;;;;5054414;28;20110;-30
2024/01/11 05:02:20;;;;;;;20.98;10.10;;;-3.60;75.70;;;;;;5054075;28;20017;-29
2024/01/11 05:04:47;;;;;;;23.92;11.38;;;-3.60;75.70;;;;;;5054454;28;20021;-32
2024/01/11 05:07:13;;;;;;;26.73;12.02;;;-3.60;75.80;;;;;;5054477;28;20067;-30
2024/01/11 05:09:39;;;;;;;23.38;11.27;;;-3.60;75.80;;;;;;5054384;28;20513;-31
2024/01/11 05:12:05;;;;;;;22.88;10.80;;;-3.60;75.80;;;;;;5054137;28;20021;-32
2024/01/11 05:14:31;;;;;;;22.83;11.18;;;-3.60;75.90;;;;;;5054021;28;20079;-30
2024/01/11 05:16:56;;;;;;;22.35;11.43;;;-3.60;76.00;;;;;;5054113;28;20457;-32
2024/01/11 05:19:22;;;;;;;27.02;12.27;;;-3.60;76.00;;;;;;5052692;28;20064;-30
2024/01/11 05:21:47;;;;;;;22.52;11.52;;;-3.60;76.10;;;;;;5053905;28;20029;-29
2024/01/11 05:24:13;;;;;;;20.08;11.02;;;-3.60;76.20;;;;;;5053842;28;20025;-30
2024/01/11 05:26:38;;;;;;;23.35;11.55;;;-3.50;76.20;;;;;;5053568;28;20058;-31
2024/01/11 05:29:04;;;;;;;26.02;12.60;;;-3.50;76.20;;;;;;5053079;28;20103;-30
2024/01/11 05:31:30;;;;;;;51.50;14.18;;;-3.50;76.30;;;;;;5053628;28;20476;-30
2024/01/11 05:33:55;;;;;;;24.05;12.10;;;-3.50;76.40;;;;;;5053685;28;20076;-32
2024/01/11 05:36:21;;;;;;;22.45;11.88;;;-3.50;76.50;;;;;;5053759;28;20025;-30
2024/01/11 05:38:47;;;;;;;23.17;11.18;;;-3.50;76.50;;;;;;5053798;28;20021;-31
2024/01/11 05:41:13;;;;;;;26.17;12.25;;;-3.50;76.50;;;;;;5053457;28;20054;-30
2024/01/11 05:43:39;;;;;;;24.42;11.88;;;-3.40;76.60;;;;;;5053534;28;20152;-33
2024/01/11 05:46:06;;;;;;;22.42;11.70;;;-3.40;76.60;;;;;;5053644;28;20021;-31
2024/01/11 05:48:32;;;;;;;22.13;11.65;;;-3.40;76.60;;;;;;5053570;28;20017;-31
2024/01/11 05:50:58;;;;;;;23.27;11.70;;;-3.40;76.60;;;;;;5053378;28;20593;-33
2024/01/11 05:53:24;;;;;;;22.65;11.73;;;-3.40;76.70;;;;;;5053355;28;20094;-33
2024/01/11 05:55:50;;;;;;;21.98;11.88;;;-3.40;76.70;;;;;;5053429;28;20048;-30
2024/01/11 05:58:15;;;;;;;23.70;11.88;;;-3.40;76.80;;;;;;5053400;28;20461;-32
2024/01/11 06:00:41;;;;;;;27.45;11.65;;;-3.40;76.80;;;;;;5053256;28;20017;-34
2024/01/11 06:03:07;;;;;;;24.38;12.07;;;-3.40;76.80;;;;;;5053246;28;20021;-34
2024/01/11 06:05:33;;;;;;;22.98;11.50;;;-3.40;76.80;;;;;;5053203;28;20417;-31
2024/01/11 06:07:59;;;;;;;24.77;13.07;;;-3.40;76.80;;;;;;5053279;28;20021;-30
2024/01/11 06:10:24;;;;;;;26.08;12.60;;;-3.40;77.00;;;;;;5053041;28;20044;-31
2024/01/11 06:12:50;;;;;;;29.38;12.95;;;-3.40;77.00;;;;;;5052809;28;20031;-31
2024/01/11 06:15:15;;;;;;;25.90;11.68;;;-3.40;77.10;;;;;;5053036;28;20029;-30
2024/01/11 06:17:41;;;;;;;23.98;12.45;;;-3.40;77.10;;;;;;5052781;28;20025;-37
2024/01/11 06:20:07;;;;;;;26.98;13.68;;;-3.30;77.10;;;;;;5051480;28;20044;-33
2024/01/11 06:22:32;;;;;;;25.67;12.88;;;-3.30;77.10;;;;;;5052657;28;20095;-36
2024/01/11 06:24:59;;;;;;;34.13;16.05;;;-3.40;77.20;;;;;;5053041;28;20539;-33
2024/01/11 06:27:25;;;;;;;29.85;14.25;;;-3.40;77.50;;;;;;5052952;28;20412;-30
2024/01/11 06:29:50;;;;;;;25.30;13.02;;;-3.50;77.60;;;;;;5052891;28;20013;-30
2024/01/11 06:32:16;;;;;;;27.55;13.90;;;-3.50;77.90;;;;;;5052603;28;20028;-32
2024/01/11 06:34:45;;;;;;;26.30;13.20;;;-3.50;77.90;;;;;;5052558;28;20057;-29
2024/01/11 06:37:11;;;;;;;30.27;13.73;;;-3.60;78.00;;;;;;5052590;28;20100;-32
2024/01/11 06:39:37;;;;;;;27.13;13.40;;;-3.60;78.00;;;;;;5052051;28;20111;-30
2024/01/11 06:42:02;;;;;;;31.25;14.25;;;-3.60;78.00;;;;;;5052328;28;20021;-30
2024/01/11 06:44:28;;;;;;;33.30;14.80;;;-3.60;78.00;;;;;;5052364;28;20086;-38
2024/01/11 06:46:54;;;;;;;24.42;12.60;;;-3.60;78.10;;;;;;5052417;28;20021;-33
2024/01/11 06:49:19;;;;;;;28.25;13.95;;;-3.60;78.20;;;;;;5052310;28;20132;-31
2024/01/11 06:51:45;;;;;;;25.83;12.77;;;-3.60;78.00;;;;;;5052228;28;20029;-30
2024/01/11 06:54:10;;;;;;;26.35;13.18;;;-3.50;78.10;;;;;;5052298;28;20021;-30
2024/01/11 06:56:36;;;;;;;29.60;14.00;;;-3.50;78.00;;;;;;5052460;28;20032;-32
2024/01/11 06:59:02;;;;;;;26.42;13.60;;;-3.50;78.00;;;;;;5051958;28;20478;-30
2024/01/11 07:01:27;;;;;;;22.20;11.88;;;-3.60;77.90;;;;;;5052056;28;20032;-37
2024/01/11 07:03:53;;;;;;;27.00;14.20;;;-3.60;78.00;;;;;;5052091;28;20078;-35
2024/01/11 07:06:19;;;;;;;24.63;12.60;;;-3.60;78.00;;;;;;5051938;28;20595;-31
2024/01/11 07:08:45;;;;;;;27.88;14.35;;;-3.60;78.10;;;;;;5052215;28;20017;-30
2024/01/11 07:11:11;;;;;;;28.27;14.27;;;-3.70;78.00;;;;;;5052187;28;20043;-31
2024/01/11 07:13:36;;;;;;;28.80;14.15;;;-3.70;78.10;;;;;;5052084;28;20021;-31
2024/01/11 07:16:03;;;;;;;26.88;13.80;;;-3.70;78.10;;;;;;5051988;28;20029;-43
2024/01/11 07:18:28;;;;;;;28.83;13.52;;;-3.60;78.30;;;;;;5052026;28;20032;-31
2024/01/11 07:20:57;;;;;;;25.45;13.20;;;-3.60;78.30;;;;;;5052015;28;20105;-30
2024/01/11 07:23:22;;;;;;;27.95;13.57;;;-3.60;78.20;;;;;;5052201;28;20022;-33
2024/01/11 07:25:48;;;;;;;28.60;13.63;;;-3.60;78.20;;;;;;5052114;28;20024;-31
2024/01/11 07:28:14;;;;;;;29.65;13.55;;;-3.50;78.20;;;;;;5051756;28;20025;-32
2024/01/11 07:30:39;;;;;;;29.40;14.10;;;-3.50;78.10;;;;;;5050628;28;20128;-33
2024/01/11 07:33:05;;;;;;;27.90;13.70;;;-3.40;78.10;;;;;;5050295;28;20048;-33
2024/01/11 07:35:31;;;;;;;28.60;13.85;;;-3.40;78.00;;;;;;5052075;28;20029;-30
2024/01/11 07:37:57;;;;;;;27.15;14.55;;;-3.40;77.90;;;;;;5051703;28;20025;-30
2024/01/11 07:40:23;;;;;;;26.63;13.65;;;-3.30;77.90;;;;;;5052144;28;20519;-29
2024/01/11 07:42:49;;;;;;;29.45;13.77;;;-3.30;77.80;;;;;;5051572;28;20069;-32
2024/01/11 07:45:15;;;;;;;25.85;12.77;;;-3.30;77.70;;;;;;5051940;28;20060;-34
2024/01/11 07:47:42;;;;;;;24.90;13.30;;;-3.30;77.70;;;;;;5051961;28;20028;-32
2024/01/11 07:50:12;;;;;;;27.75;13.80;;;-3.30;77.70;;;;;;5051700;28;20025;-32
2024/01/11 07:52:38;;;;;;;27.38;14.23;;;-3.30;77.70;;;;;;5054147;28;20032;-30
2024/01/11 07:55:08;;;;;;;30.00;15.50;;;-3.40;77.70;;;;;;5055597;28;20033;-29
2024/01/11 07:57:37;;;;;;;31.27;14.90;;;-3.40;77.70;;;;;;5055598;28;20075;-30
2024/01/11 08:00:06;;;;;;;31.73;14.70;;;-3.40;77.80;;;;;;5055628;28;20464;-31
2024/01/11 08:02:32;;;;;;;33.55;15.02;;;-3.40;78.20;;;;;;5055587;28;20029;-32
2024/01/11 08:04:59;;;;;;;27.80;14.25;;;-3.30;77.90;;;;;;5055275;28;20067;-31
2024/01/11 08:07:28;;;;;;;30.17;15.00;;;-3.30;77.80;;;;;;5054589;28;20025;-30
2024/01/11 08:09:54;;;;;;;30.15;15.13;;;-3.20;77.80;;;;;;5054298;28;20029;-32
2024/01/11 08:12:20;;;;;;;27.73;14.27;;;-3.20;77.70;;;;;;5054211;28;20028;-29
2024/01/11 08:14:46;;;;;;;30.00;15.10;;;-3.10;77.60;;;;;;5054037;28;20025;-34
2024/01/11 08:17:15;;;;;;;27.85;14.15;;;-3.10;77.50;;;;;;5055043;28;20039;-32
2024/01/11 08:19:42;;;;;;;31.60;15.35;;;-3.10;77.50;;;;;;5055047;28;20029;-31
2024/01/11 08:22:08;;;;;;;30.50;14.85;;;-3.10;77.50;;;;;;5055288;28;20040;-30
2024/01/11 08:24:35;;;;;;;34.45;15.50;;;-3.10;77.40;;;;;;5054935;28;20056;-30
2024/01/11 08:27:01;;;;;;;27.90;14.45;;;-3.00;77.30;;;;;;5055039;28;20029;-32
2024/01/11 08:29:27;;;;;;;29.25;15.95;;;-3.10;77.30;;;;;;5055220;28;20025;-31
2024/01/11 08:31:54;;;;;;;32.42;16.38;;;-3.00;77.40;;;;;;5055117;28;20032;-31
2024/01/11 08:34:20;;;;;;;35.33;16.52;;;-3.00;77.40;;;;;;5054458;28;20044;-34
2024/01/11 08:36:46;;;;;;;30.77;15.38;;;-3.00;77.30;;;;;;5053177;28;20527;-30
2024/01/11 08:39:13;;;;;;;30.88;14.80;;;-3.00;77.40;;;;;;5054453;28;20048;-34
2024/01/11 08:41:38;;;;;;;31.15;15.27;;;-3.00;77.40;;;;;;5054524;28;20051;-34
2024/01/11 08:44:07;;;;;;;29.98;16.02;;;-3.00;77.40;;;;;;5054630;28;20025;-34
2024/01/11 08:46:33;;;;;;;35.00;17.13;;;-2.90;77.30;;;;;;5054561;28;20024;-41
2024/01/11 08:49:03;;;;;;;28.48;14.85;;;-2.90;77.20;;;;;;5054170;28;20029;-43
2024/01/11 08:51:34;;;;;;;32.20;15.95;;;-2.90;77.30;;;;;;5054253;28;20282;-37
2024/01/11 08:54:00;;;;;;;31.65;17.25;;;-2.80;77.30;;;;;;5054251;28;20029;-42
2024/01/11 08:56:26;;;;;;;31.42;16.15;;;-2.80;77.10;;;;;;5053834;28;20342;-32
2024/01/11 08:58:51;;;;;;;32.72;17.27;;;-2.80;77.10;;;;;;5054235;28;20094;-33
2024/01/11 09:01:18;;;;;;;32.97;16.88;;;-2.70;77.20;;;;;;5053678;28;20036;-36
2024/01/11 09:03:44;;;;;;;32.38;15.88;;;-2.70;77.00;;;;;;5052654;28;20033;-38
2024/01/11 09:06:11;;;;;;;31.50;16.23;;;-2.70;76.90;;;;;;5053700;28;20052;-33
2024/01/11 09:08:36;;;;;;;33.28;17.27;;;-2.60;77.00;;;;;;5053739;28;20025;-35
2024/01/11 09:11:03;;;;;;;40.70;18.58;;;-2.60;76.90;;;;;;5053789;28;20036;-34
2024/01/11 09:13:29;;;;;;;32.35;16.50;;;-2.60;76.80;;;;;;5053825;28;20382;-31
2024/01/11 09:15:55;;;;;;;37.67;18.00;;;-2.50;76.70;;;;;;5052234;28;20024;-41
2024/01/11 09:18:21;;;;;;;37.97;16.92;;;-2.50;76.70;;;;;;5053230;28;20025;-33
2024/01/11 09:20:48;;;;;;;35.28;17.75;;;-2.50;76.60;;;;;;5051933;28;20021;-31
2024/01/11 09:23:14;;;;;;;35.22;17.65;;;-2.40;76.60;;;;;;5053195;28;20029;-29
2024/01/11 09:25:40;;;;;;;38.83;17.95;;;-2.30;77.20;;;;;;5053429;28;20070;-30
2024/01/11 09:28:05;;;;;;;34.20;17.45;;;-2.30;76.60;;;;;;5053052;28;20017;-30
2024/01/11 09:30:31;;;;;;;33.33;17.00;;;-2.20;76.60;;;;;;5053150;28;20017;-33
2024/01/11 09:32:57;;;;;;;31.85;16.00;;;-2.20;76.50;;;;;;5053026;28;20025;-31
2024/01/11 09:35:23;;;;;;;31.17;16.13;;;-2.10;76.50;;;;;;5052820;28;20166;-31
2024/01/11 09:37:49;;;;;;;33.03;16.83;;;-2.10;76.30;;;;;;5052450;28;20025;-34
2024/01/11 09:40:16;;;;;;;34.80;17.25;;;-2.00;76.20;;;;;;5051600;28;20032;-34
2024/01/11 09:42:42;;;;;;;34.85;17.60;;;-2.00;76.10;;;;;;5051395;28;20237;-30
2024/01/11 09:45:12;;;;;;;34.97;17.42;;;-2.10;76.00;;;;;;5051555;28;20032;-38
2024/01/11 09:47:38;;;;;;;39.70;17.33;;;-2.00;76.20;;;;;;5051779;28;20428;-35
2024/01/11 09:50:05;;;;;;;35.45;17.58;;;-2.00;76.10;;;;;;5051526;28;20110;-33
2024/01/11 09:52:33;;;;;;;35.42;17.80;;;-1.90;76.10;;;;;;5051726;28;20454;-32
2024/01/11 09:55:00;;;;;;;36.78;17.77;;;-1.90;76.00;;;;;;5050347;28;20065;-32
2024/01/11 09:57:29;;;;;;;34.70;17.42;;;-1.90;75.90;;;;;;5051412;28;20480;-32
2024/01/11 09:59:56;;;;;;;32.47;16.55;;;-1.90;76.00;;;;;;5051285;28;20154;-33
2024/01/11 10:02:25;;;;;;;29.98;16.08;;;-1.80;76.10;;;;;;5051360;28;20083;-37
2024/01/11 10:04:52;;;;;;;32.22;16.05;;;-1.70;76.10;;;;;;5052159;28;20083;-35
2024/01/11 10:07:21;;;;;;;32.75;17.17;;;-1.60;76.00;;;;;;5052489;28;20021;-31
2024/01/11 10:09:47;;;;;;;31.40;16.05;;;-1.60;75.90;;;;;;5052388;28;20103;-34
2024/01/11 10:12:13;;;;;;;32.60;16.92;;;-1.50;76.00;;;;;;5051045;28;20529;-33
2024/01/11 10:14:39;;;;;;;32.35;17.70;;;-1.50;76.50;;;;;;5052279;28;20104;-29
2024/01/11 10:17:06;;;;;;;32.22;16.23;;;-1.40;75.90;;;;;;5051116;28;20025;-31
2024/01/11 10:19:31;;;;;;;34.03;18.20;;;-1.40;76.00;;;;;;5052100;28;20090;-31
2024/01/11 10:22:00;;;;;;;35.28;18.77;;;-1.40;76.10;;;;;;5051032;28;20017;-34
2024/01/11 10:24:26;;;;;;;33.83;18.25;;;-1.40;76.10;;;;;;5052043;28;20017;-30
2024/01/11 10:26:55;;;;;;;30.08;16.60;;;-1.50;76.30;;;;;;5052414;28;20040;-30
2024/01/11 10:29:21;;;;;;;28.00;15.50;;;-1.40;76.30;;;;;;5051920;28;20477;-29
2024/01/11 10:31:47;;;;;;;28.98;15.68;;;-1.40;76.70;;;;;;5052110;28;20021;-35
2024/01/11 10:34:12;;;;;;;30.85;15.20;;;-1.30;76.70;;;;;;5051652;28;20136;-33
2024/01/11 10:36:40;;;;;;;29.27;14.07;;;-1.30;76.70;;;;;;5051960;28;20056;-40
2024/01/11 10:39:07;;;;;;;24.05;13.13;;;-1.20;77.70;;;;;;5052146;28;20025;-32
2024/01/11 10:41:41;;;;;;;26.70;12.82;;;-1.20;77.80;;;;;;5052000;28;20531;-32
2024/01/11 10:44:18;;;;;;;24.65;11.73;;;-1.10;78.50;;;;;;5052137;28;20440;-30
2024/01/11 10:46:46;;;;;;;25.42;12.27;;;-1.10;79.20;;;;;;5050633;28;20021;-31
2024/01/11 10:49:16;;;;;;;22.98;10.75;;;-1.00;81.00;;;;;;5051633;28;20028;-34
2024/01/11 10:51:58;;;;;;;23.70;11.48;;;-0.90;81.30;;;;;;5050407;28;20021;-31
2024/01/11 10:54:24;;;;;;;21.25;10.23;;;-0.90;82.20;;;;;;5051730;28;20029;-31
2024/01/11 10:56:51;;;;;;;20.95;9.23;;;-0.80;81.80;;;;;;5052069;28;20373;-29
2024/01/11 10:59:19;;;;;;;20.67;9.82;;;-0.80;82.40;;;;;;5051682;28;20158;-34
2024/01/11 11:01:46;;;;;;;20.13;9.10;;;-0.80;82.30;;;;;;5051279;28;20021;-29
2024/01/11 11:04:14;;;;;;;21.88;9.75;;;-0.80;81.70;;;;;;5051721;28;20410;-34
2024/01/11 11:06:42;;;;;;;16.15;7.97;;;-0.70;82.10;;;;;;5051807;28;20021;-33
2024/01/11 11:09:08;;;;;;;19.40;8.80;;;-0.70;82.50;;;;;;5051593;28;20025;-29
2024/01/11 11:11:35;;;;;;;19.02;8.75;;;-0.70;82.40;;;;;;5051536;28;20020;-29
2024/01/11 11:14:01;;;;;;;19.77;8.57;;;-0.60;82.30;;;;;;5051604;28;20025;-31
2024/01/11 11:16:27;;;;;;;18.85;8.40;;;-0.50;82.00;;;;;;5051570;28;20104;-30
2024/01/11 11:18:55;;;;;;;19.58;8.27;;;-0.40;81.80;;;;;;5051655;28;20108;-33
2024/01/11 11:21:21;;;;;;;21.60;9.40;;;-0.30;82.00;;;;;;5051270;28;20029;-30
2024/01/11 11:23:47;;;;;;;19.30;8.50;;;-0.30;82.10;;;;;;5051465;28;20044;-30
2024/01/11 11:26:20;;;;;;;22.60;9.20;;;-0.20;81.90;;;;;;5052997;28;20075;-32
2024/01/11 11:28:48;;;;;;;20.92;9.25;;;-0.20;81.80;;;;;;5055774;28;20013;-28
2024/01/11 11:31:33;;;;;;;19.90;9.63;;;0.00;82.40;;;;;;5055870;28;20446;-36
2024/01/11 11:34:03;;;;;;;22.13;8.40;;;0.00;82.20;;;;;;5055317;28;20501;-32
2024/01/11 11:36:32;;;;;;;24.20;9.13;;;0.10;82.20;;;;;;5055735;28;20355;-35
2024/01/11 11:39:00;;;;;;;20.08;8.98;;;0.10;82.10;;;;;;5054058;28;20509;-32
2024/01/11 11:41:36;;;;;;;17.88;7.13;;;0.20;82.00;;;;;;5055637;28;20417;-37
2024/01/11 11:44:05;;;;;;;20.33;8.35;;;0.40;81.90;;;;;;5054078;28;20025;-32
2024/01/11 11:46:33;;;;;;;20.00;8.45;;;0.40;81.80;;;;;;5055357;28;20144;-33
2024/01/11 11:48:59;;;;;;;20.80;8.68;;;0.50;82.10;;;;;;5055448;28;20416;-30
2024/01/11 11:51:27;;;;;;;20.60;9.07;;;0.60;82.20;;;;;;5054309;28;20025;-30
2024/01/11 11:53:53;;;;;;;19.42;8.23;;;0.60;82.30;;;;;;5055446;28;20056;-30
2024/01/11 11:56:21;;;;;;;22.83;9.02;;;0.60;82.10;;;;;;5055226;28;20044;-31
2024/01/11 11:58:49;;;;;;;20.70;9.35;;;0.60;82.20;;;;;;5054816;28;20025;-29
2024/01/11 12:01:17;;;;;;;19.33;9.05;;;0.70;82.50;;;;;;5054784;28;20028;-31
2024/01/11 12:03:49;;;;;;;20.15;9.10;;;0.70;82.40;;;;;;5053416;28;20061;-33
2024/01/11 12:06:17;;;;;;;17.45;7.63;;;0.80;82.60;;;;;;5054749;28;20108;-29
2024/01/11 12:08:43;;;;;;;19.15;9.00;;;0.80;82.50;;;;;;5054602;28;20057;-30
2024/01/11 12:11:12;;;;;;;17.05;8.15;;;0.90;82.60;;;;;;5054735;28;20021;-33
2024/01/11 12:13:37;;;;;;;20.00;8.55;;;0.90;82.50;;;;;;5054720;28;20072;-30
2024/01/11 12:16:03;;;;;;;20.17;8.52;;;1.00;82.50;;;;;;5054625;28;20450;-33
2024/01/11 12:18:29;;;;;;;20.00;9.45;;;1.00;82.50;;;;;;5054627;28;20386;-31
2024/01/11 12:20:54;;;;;;;19.70;8.85;;;1.10;82.60;;;;;;5054593;28;20021;-30
2024/01/11 12:23:20;;;;;;;18.25;8.63;;;1.10;82.50;;;;;;5054435;28;20061;-30
2024/01/11 12:25:46;;;;;;;23.95;9.40;;;1.20;82.50;;;;;;5054350;28;20025;-32
2024/01/11 12:28:12;;;;;;;19.48;9.13;;;1.20;82.70;;;;;;5054155;28;20025;-31